Time;durP1;ratioP1;P1;durP2;ratioP2;P2;SDS_P1;SDS_P2;PMS_P1;PMS_P2;Temp;Humidity;BMP_temperature;BMP_pressure;BME280_temperature;BME280_humidity;BME280_pressure;Samples;Min_cycle;Max_cycle;Signal;HPM_P1;HPM_P2
2023/01/11 00:02:38;;;;;;;;;;;;;;;;;;;;;
2023/01/11 00:14:06;;;;;;;30.10;10.30;;;;;;;;;;103796;1295;545022;-82
2023/01/11 00:16:45;;;;;;;25.90;10.70;;;;;;;;;;106047;1288;22591;-78
2023/01/11 00:19:24;;;;;;;31.60;11.10;;;;;;;;;;106314;1288;24245;-82
2023/01/11 00:22:26;;;;;;;;;;;;;;;;;;;;;
2023/01/11 00:25:01;;;;;;;24.80;9.10;;;;;;;;;;106418;1266;22555;-81
2023/01/11 00:28:35;;;;;;;29.00;10.40;;;;;;;;;;103021;1282;4817649;-81
2023/01/11 00:31:17;;;;;;;28.50;9.50;;;;;;;;;;106899;1276;24320;-80
2023/01/11 00:33:54;;;;;;;25.10;9.50;;;;;;;;;;106929;1269;22548;-83
2023/01/11 00:36:26;;;;;;;21.20;9.00;;;;;;;;;;106902;1276;22543;-78
2023/01/11 00:38:59;;;;;;;23.60;8.30;;;;;;;;;;106884;1275;22553;-82
2023/01/11 00:48:03;;;;;;;17.20;6.00;;;;;;;;;;107189;1274;22539;-83
2023/01/11 00:51:15;;;;;;;16.80;5.40;;;;;;;;;;107208;1274;22530;-78
2023/01/11 00:54:11;;;;;;;;;;;;;;;;;;;;;
2023/01/11 00:57:20;;;;;;;15.80;5.50;;;;;;;;;;107152;1274;22530;-83
2023/01/11 01:00:00;;;;;;;14.30;5.50;;;;;;;;;;107122;1274;24219;-85
2023/01/11 01:02:46;;;;;;;16.50;5.00;;;;;;;;;;107186;1274;22597;-80
2023/01/11 01:05:33;;;;;;;15.70;5.00;;;;;;;;;;106934;1256;25281;-85
2023/01/11 01:08:16;;;;;;;;;;;;;;;;;;;;;
2023/01/11 01:11:04;;;;;;;18.40;5.90;;;;;;;;;;107105;1275;25179;-79
2023/01/11 01:16:55;;;;;;;16.50;5.80;;;;;;;;;;107035;1256;25464;-80
2023/01/11 01:19:28;;;;;;;12.90;4.70;;;;;;;;;;107156;1275;22744;-81
2023/01/11 01:22:25;;;;;;;13.10;4.30;;;;;;;;;;107148;1275;24357;-81
2023/01/11 01:25:12;;;;;;;11.60;4.30;;;;;;;;;;107103;1275;22530;-83
2023/01/11 01:28:50;;;;;;;12.80;4.20;;;;;;;;;;107093;1275;22589;-82
2023/01/11 01:31:18;;;;;;;16.70;3.80;;;;;;;;;;106994;1275;22534;-79
2023/01/11 01:34:05;;;;;;;11.70;3.70;;;;;;;;;;107046;1269;22554;-79
2023/01/11 01:37:50;;;;;;;13.20;4.10;;;;;;;;;;106965;1256;24199;-84
2023/01/11 01:40:24;;;;;;;12.50;4.10;;;;;;;;;;106732;1281;22626;-85
2023/01/11 01:43:31;;;;;;;13.30;4.10;;;;;;;;;;106660;1281;22536;-79
2023/01/11 01:46:19;;;;;;;13.40;4.20;;;;;;;;;;106679;1281;23003;-81
2023/01/11 01:49:06;;;;;;;11.60;4.20;;;;;;;;;;106455;1281;24220;-86
2023/01/11 01:52:04;;;;;;;13.00;4.80;;;;;;;;;;106523;1283;22560;-79
2023/01/11 01:54:44;;;;;;;11.40;4.20;;;;;;;;;;106414;1282;22529;-79
2023/01/11 01:57:14;;;;;;;13.70;5.40;;;;;;;;;;106455;1281;26658;-79
2023/01/11 01:59:53;;;;;;;;;;;;;;;;;;;;;
2023/01/11 02:03:11;;;;;;;14.20;5.40;;;;;;;;;;106486;1279;24057;-82
2023/01/11 02:06:06;;;;;;;13.70;5.40;;;;;;;;;;106446;1275;22536;-83
2023/01/11 02:09:38;;;;;;;17.10;5.80;;;;;;;;;;106366;1283;25301;-78
2023/01/11 02:12:10;;;;;;;13.50;5.50;;;;;;;;;;106067;1288;22541;-81
2023/01/11 02:18:20;;;;;;;15.90;5.60;;;;;;;;;;106354;1276;22535;-84
2023/01/11 02:24:29;;;;;;;15.00;5.80;;;;;;;;;;106471;1282;22494;-82
2023/01/11 02:27:38;;;;;;;16.40;5.80;;;;;;;;;;106454;1264;24406;-80
2023/01/11 02:31:02;;;;;;;15.80;5.90;;;;;;;;;;106490;1282;22547;-82
2023/01/11 02:33:37;;;;;;;18.90;7.00;;;;;;;;;;106453;1275;25288;-82
2023/01/11 02:37:25;;;;;;;21.10;8.00;;;;;;;;;;106464;1271;22539;-78
2023/01/11 02:40:59;;;;;;;19.30;8.00;;;;;;;;;;106446;1282;22495;-82
2023/01/11 02:47:58;;;;;;;17.50;7.40;;;;;;;;;;106425;1264;25558;-78
2023/01/11 02:50:34;;;;;;;18.80;7.50;;;;;;;;;;106970;1276;24199;-78
2023/01/11 02:56:57;;;;;;;;;;;;;;;;;;;;;
2023/01/11 02:59:48;;;;;;;18.10;7.80;;;;;;;;;;106672;1263;22655;-81
2023/01/11 03:03:31;;;;;;;19.90;7.40;;;;;;;;;;106812;1276;25451;-84
2023/01/11 03:06:12;;;;;;;;;;;;;;;;;;;;;
2023/01/11 03:09:05;;;;;;;23.80;9.00;;;;;;;;;;106433;1263;23888;-79
2023/01/11 03:14:48;;;;;;;20.80;8.70;;;;;;;;;;106458;1283;25274;-81
2023/01/11 03:17:56;;;;;;;22.90;8.80;;;;;;;;;;106221;1283;22529;-79
2023/01/11 03:20:49;;;;;;;21.80;7.50;;;;;;;;;;106392;1262;22610;-80
2023/01/11 03:23:57;;;;;;;20.00;7.80;;;;;;;;;;106044;1288;22581;-81
2023/01/11 03:26:37;;;;;;;23.00;8.00;;;;;;;;;;106010;1288;24396;-81
2023/01/11 03:29:19;;;;;;;21.30;8.20;;;;;;;;;;106079;1271;22547;-77
2023/01/11 03:35:06;;;;;;;17.70;8.40;;;;;;;;;;106002;1288;25316;-82
2023/01/11 03:38:17;;;;;;;15.90;6.90;;;;;;;;;;106012;1288;22551;-80
2023/01/11 03:41:28;;;;;;;21.40;7.80;;;;;;;;;;106013;1271;22568;-80
2023/01/11 03:44:44;;;;;;;;;;;;;;;;;;;;;
2023/01/11 03:48:01;;;;;;;;;;;;;;;;;;;;;
2023/01/11 03:50:51;;;;;;;13.90;5.00;;;;;;;;;;105734;1274;22552;-77
2023/01/11 03:54:00;;;;;;;15.40;5.20;;;;;;;;;;105716;1295;22551;-79
2023/01/11 03:56:35;;;;;;;16.10;5.50;;;;;;;;;;105717;1295;25435;-82
2023/01/11 03:59:02;;;;;;;16.90;6.70;;;;;;;;;;105734;1295;22556;-78
2023/01/11 04:02:31;;;;;;;22.60;8.50;;;;;;;;;;105884;1290;24266;-81
2023/01/11 04:05:42;;;;;;;19.20;7.70;;;;;;;;;;105747;1286;22538;-82
2023/01/11 04:08:13;;;;;;;15.60;5.30;;;;;;;;;;105724;1293;24107;-82
2023/01/11 04:21:18;;;;;;;15.20;5.30;;;;;;;;;;104179;1300;544732;-78
2023/01/11 04:24:27;;;;;;;15.70;5.20;;;;;;;;;;106376;1285;22596;-83
2023/01/11 04:27:14;;;;;;;12.40;4.80;;;;;;;;;;107183;1273;22527;-79
2023/01/11 04:30:01;;;;;;;17.70;5.50;;;;;;;;;;107196;1273;22546;-83
2023/01/11 04:32:58;;;;;;;15.90;5.20;;;;;;;;;;107138;1267;25247;-80
2023/01/11 04:35:46;;;;;;;15.40;4.30;;;;;;;;;;103791;1272;4624489;-83
2023/01/11 04:38:44;;;;;;;15.70;4.00;;;;;;;;;;107215;1251;22576;-79
2023/01/11 04:45:22;;;;;;;12.90;4.20;;;;;;;;;;107295;1272;22543;-79
2023/01/11 04:51:10;;;;;;;;;;;;;;;;;;;;;
2023/01/11 04:53:48;;;;;;;14.60;5.00;;;;;;;;;;107206;1273;24240;-80
2023/01/11 04:56:45;;;;;;;;;;;;;;;;;;;;;
2023/01/11 04:59:36;;;;;;;15.10;4.60;;;;;;;;;;107198;1273;22537;-78
2023/01/11 05:02:15;;;;;;;16.40;5.00;;;;;;;;;;107150;1261;22527;-79
2023/01/11 05:04:54;;;;;;;14.00;4.60;;;;;;;;;;107308;1272;25470;-82
2023/01/11 05:07:21;;;;;;;12.10;4.20;;;;;;;;;;107070;1273;22555;-82
2023/01/11 05:10:01;;;;;;;13.90;4.30;;;;;;;;;;107248;1273;22529;-81
2023/01/11 05:13:09;;;;;;;13.50;3.60;;;;;;;;;;107231;1263;24228;-78
2023/01/11 05:15:44;;;;;;;17.70;5.30;;;;;;;;;;107146;1274;22779;-83
2023/01/11 05:18:55;;;;;;;17.20;5.40;;;;;;;;;;107007;1274;24206;-81
2023/01/11 05:21:39;;;;;;;13.00;4.10;;;;;;;;;;107168;1250;24292;-81
2023/01/11 05:32:20;;;;;;;15.80;5.50;;;;;;;;;;103941;1292;547903;-78
2023/01/11 05:34:49;;;;;;;13.40;4.20;;;;;;;;;;106429;1282;22595;-80
2023/01/11 05:37:34;;;;;;;;;;;;;;;;;;;;;
2023/01/11 05:40:41;;;;;;;11.40;3.30;;;;;;;;;;106298;1287;22510;-81
2023/01/11 05:43:25;;;;;;;13.30;3.50;;;;;;;;;;106261;1268;22673;-81
2023/01/11 05:46:03;;;;;;;11.00;3.00;;;;;;;;;;102409;1284;5393067;-81
2023/01/11 05:48:32;;;;;;;10.30;2.80;;;;;;;;;;106407;1283;24411;-82
2023/01/11 05:51:08;;;;;;;15.60;2.70;;;;;;;;;;106441;1267;22561;-86
2023/01/11 05:53:54;;;;;;;10.60;2.60;;;;;;;;;;109969;1283;22175;-76
2023/01/11 05:56:20;;;;;;;12.30;3.00;;;;;;;;;;110049;1283;22396;-76
2023/01/11 05:58:50;;;;;;;9.50;2.50;;;;;;;;;;110012;1283;22054;-76
2023/01/11 06:01:20;;;;;;;9.00;2.40;;;;;;;;;;109909;1283;22362;-77
2023/01/11 06:03:52;;;;;;;13.50;2.90;;;;;;;;;;109918;1267;22206;-76
2023/01/11 06:06:19;;;;;;;11.40;2.90;;;;;;;;;;110213;1280;22142;-76
2023/01/11 06:08:47;;;;;;;9.90;2.70;;;;;;;;;;109949;1281;23237;-79
2023/01/11 06:11:17;;;;;;;10.60;3.00;;;;;;;;;;109992;1281;22415;-78
2023/01/11 06:13:43;;;;;;;8.30;2.80;;;;;;;;;;110248;1260;22129;-79
2023/01/11 06:16:20;;;;;;;8.70;2.90;;;;;;;;;;110145;1278;22324;-78
2023/01/11 06:18:50;;;;;;;11.20;4.20;;;;;;;;;;110666;1273;22157;-78
2023/01/11 06:21:17;;;;;;;12.10;3.80;;;;;;;;;;110671;1273;22348;-77
2023/01/11 06:23:44;;;;;;;14.50;4.00;;;;;;;;;;110646;1257;22183;-77
2023/01/11 06:26:22;;;;;;;14.50;4.30;;;;;;;;;;110631;1271;22108;-76
2023/01/11 06:28:49;;;;;;;14.50;4.10;;;;;;;;;;110648;1274;22586;-77
2023/01/11 06:31:16;;;;;;;18.80;6.20;;;;;;;;;;110630;1274;22879;-77
2023/01/11 06:33:45;;;;;;;13.00;4.20;;;;;;;;;;110834;1251;22899;-77
2023/01/11 06:36:23;;;;;;;16.90;4.80;;;;;;;;;;110646;1273;22214;-78
2023/01/11 06:38:52;;;;;;;17.00;5.70;;;;;;;;;;110848;1273;22152;-78
2023/01/11 06:41:23;;;;;;;10.00;3.80;;;;;;;;;;110635;1271;22406;-76
2023/01/11 06:43:50;;;;;;;9.90;3.40;;;;;;;;;;110658;1256;22893;-77
2023/01/11 06:46:27;;;;;;;15.10;3.80;;;;;;;;;;110650;1274;22133;-77
2023/01/11 06:48:53;;;;;;;14.90;4.10;;;;;;;;;;110650;1274;22082;-78
2023/01/11 06:51:22;;;;;;;16.60;4.90;;;;;;;;;;110400;1274;22166;-78
2023/01/11 06:53:48;;;;;;;17.00;5.10;;;;;;;;;;110704;1256;22138;-78
2023/01/11 06:56:26;;;;;;;;;;;;;;;;;;;;;
2023/01/11 06:58:52;;;;;;;13.80;4.00;;;;;;;;;;110802;1273;22867;-77
2023/01/11 07:01:18;;;;;;;12.20;4.00;;;;;;;;;;110818;1269;22348;-79
2023/01/11 07:04:12;;;;;;;15.60;4.70;;;;;;;;;;110751;1255;22167;-78
2023/01/11 07:06:40;;;;;;;17.40;5.80;;;;;;;;;;110658;1275;22358;-78
2023/01/11 07:09:06;;;;;;;22.70;7.00;;;;;;;;;;110650;1274;22728;-79
2023/01/11 07:11:43;;;;;;;;;;;;;;;;;;;;;
2023/01/11 07:14:40;;;;;;;10.10;3.10;;;;;;;;;;110929;1253;22154;-79
2023/01/11 07:24:19;;;;;;;13.10;3.80;;;;;;;;;;110245;1260;22864;-78
2023/01/11 07:26:48;;;;;;;14.40;3.90;;;;;;;;;;110103;1279;22153;-77
2023/01/11 07:29:14;;;;;;;21.10;4.80;;;;;;;;;;110209;1279;22150;-79
2023/01/11 07:31:40;;;;;;;12.20;3.40;;;;;;;;;;110124;1279;22169;-78
2023/01/11 07:34:52;;;;;;;11.70;3.60;;;;;;;;;;110152;1261;22329;-79
2023/01/11 07:37:26;;;;;;;10.70;2.20;;;;;;;;;;110077;1281;22858;-79
2023/01/11 07:39:53;;;;;;;7.70;2.10;;;;;;;;;;110027;1281;22172;-77
2023/01/11 07:45:06;;;;;;;11.10;2.80;;;;;;;;;;110218;1261;21997;-78
2023/01/11 07:47:35;;;;;;;11.30;3.10;;;;;;;;;;110081;1281;22285;-77
2023/01/11 07:50:01;;;;;;;9.90;2.90;;;;;;;;;;110106;1280;22198;-78
2023/01/11 07:52:27;;;;;;;12.40;2.70;;;;;;;;;;110091;1280;22181;-79
2023/01/11 07:55:01;;;;;;;12.40;2.90;;;;;;;;;;110071;1262;22181;-80
2023/01/11 07:57:28;;;;;;;9.00;2.70;;;;;;;;;;110438;1273;22773;-78
2023/01/11 08:00:14;;;;;;;8.80;2.60;;;;;;;;;;110822;1273;22295;-77
2023/01/11 08:02:48;;;;;;;9.90;2.80;;;;;;;;;;110662;1273;22238;-78
2023/01/11 08:05:19;;;;;;;8.60;2.80;;;;;;;;;;110995;1256;22176;-77
2023/01/11 08:07:56;;;;;;;9.50;2.30;;;;;;;;;;110665;1273;22396;-76
2023/01/11 08:10:27;;;;;;;11.30;2.70;;;;;;;;;;110660;1273;22933;-79
2023/01/11 08:15:49;;;;;;;12.00;3.20;;;;;;;;;;110964;1253;22189;-78
2023/01/11 08:18:16;;;;;;;11.00;2.60;;;;;;;;;;110639;1273;22062;-76
2023/01/11 08:20:42;;;;;;;9.00;3.10;;;;;;;;;;110777;1273;22172;-78
2023/01/11 08:23:11;;;;;;;10.70;2.60;;;;;;;;;;110653;1273;22217;-76
2023/01/11 08:26:16;;;;;;;9.10;2.20;;;;;;;;;;110242;1262;22209;-79
2023/01/11 08:28:43;;;;;;;11.30;2.80;;;;;;;;;;110113;1279;22220;-79
2023/01/11 08:31:25;;;;;;;8.40;2.00;;;;;;;;;;110207;1279;24044;-80
2023/01/11 08:33:53;;;;;;;8.20;2.10;;;;;;;;;;110195;1279;22449;-79
2023/01/11 08:36:31;;;;;;;7.80;2.20;;;;;;;;;;110090;1261;22090;-78
2023/01/11 08:39:06;;;;;;;10.30;2.60;;;;;;;;;;110210;1279;22155;-78
2023/01/11 08:41:32;;;;;;;12.50;2.50;;;;;;;;;;110161;1279;22132;-78
2023/01/11 08:43:58;;;;;;;13.50;2.30;;;;;;;;;;110159;1279;22423;-79
2023/01/11 08:46:24;;;;;;;7.50;1.80;;;;;;;;;;110144;1262;22155;-76
2023/01/11 08:48:54;;;;;;;10.00;2.30;;;;;;;;;;110155;1279;22128;-77
2023/01/11 08:51:20;;;;;;;11.00;1.90;;;;;;;;;;110163;1279;22207;-76
2023/01/11 08:53:49;;;;;;;6.90;1.60;;;;;;;;;;110112;1279;22617;-77
2023/01/11 08:56:24;;;;;;;8.10;1.70;;;;;;;;;;110144;1262;22187;-77
2023/01/11 08:58:50;;;;;;;7.30;1.40;;;;;;;;;;110092;1279;22157;-78
2023/01/11 09:01:16;;;;;;;7.90;1.80;;;;;;;;;;110239;1279;22247;-76
2023/01/11 09:03:45;;;;;;;6.90;1.70;;;;;;;;;;110650;1273;22343;-78
2023/01/11 09:06:11;;;;;;;9.80;1.90;;;;;;;;;;110813;1256;22155;-75
2023/01/11 09:08:46;;;;;;;9.00;1.90;;;;;;;;;;110640;1274;22154;-77
2023/01/11 09:15:50;;;;;;;8.20;2.60;;;;;;;;;;110229;1260;22410;-78
2023/01/11 09:18:16;;;;;;;8.40;2.40;;;;;;;;;;110231;1280;22965;-78
2023/01/11 09:20:43;;;;;;;11.00;2.70;;;;;;;;;;110201;1280;22239;-76
2023/01/11 09:23:09;;;;;;;8.80;3.30;;;;;;;;;;110211;1280;22165;-77
2023/01/11 09:25:40;;;;;;;9.60;2.40;;;;;;;;;;110110;1257;22270;-77
2023/01/11 09:28:07;;;;;;;8.10;2.00;;;;;;;;;;110199;1280;22528;-77
2023/01/11 09:30:33;;;;;;;6.90;2.10;;;;;;;;;;110076;1280;22156;-76
2023/01/11 09:32:59;;;;;;;7.50;1.60;;;;;;;;;;110094;1272;21921;-86
2023/01/11 09:35:25;;;;;;;7.30;1.70;;;;;;;;;;110086;1270;22806;-77
2023/01/11 09:37:54;;;;;;;9.20;2.00;;;;;;;;;;110302;1262;22276;-77
2023/01/11 09:40:22;;;;;;;11.70;2.20;;;;;;;;;;110081;1278;22208;-76
2023/01/11 09:42:59;;;;;;;9.70;1.90;;;;;;;;;;110229;1280;22125;-77
2023/01/11 09:45:28;;;;;;;9.60;2.10;;;;;;;;;;110108;1280;22176;-77
2023/01/11 09:48:02;;;;;;;9.50;2.50;;;;;;;;;;110276;1262;22128;-78
2023/01/11 09:50:30;;;;;;;7.80;1.80;;;;;;;;;;110620;1274;22117;-77
2023/01/11 09:53:03;;;;;;;10.20;1.90;;;;;;;;;;110659;1274;22284;-77
2023/01/11 09:55:49;;;;;;;7.00;1.70;;;;;;;;;;110645;1274;22109;-77
2023/01/11 09:58:27;;;;;;;9.20;2.20;;;;;;;;;;111224;1257;22428;-77
2023/01/11 10:01:07;;;;;;;8.70;2.00;;;;;;;;;;110688;1274;22099;-76
2023/01/11 10:03:36;;;;;;;10.10;2.20;;;;;;;;;;110659;1274;22201;-78
2023/01/11 10:06:08;;;;;;;11.10;2.90;;;;;;;;;;110654;1274;22773;-78
2023/01/11 10:08:49;;;;;;;9.50;2.70;;;;;;;;;;110773;1264;22112;-77
2023/01/11 10:11:23;;;;;;;10.00;2.70;;;;;;;;;;110631;1275;22115;-78
2023/01/11 10:14:10;;;;;;;12.90;2.90;;;;;;;;;;110611;1274;22316;-78
2023/01/11 10:16:39;;;;;;;10.80;2.80;;;;;;;;;;110626;1251;22229;-78
2023/01/11 10:19:15;;;;;;;14.70;3.30;;;;;;;;;;110602;1275;22153;-79
2023/01/11 10:21:59;;;;;;;8.20;3.00;;;;;;;;;;110634;1275;22124;-78
2023/01/11 10:24:29;;;;;;;8.80;2.50;;;;;;;;;;110674;1266;21759;-78
2023/01/11 10:27:00;;;;;;;8.90;2.00;;;;;;;;;;110640;1259;22212;-77
2023/01/11 10:32:12;;;;;;;9.90;3.40;;;;;;;;;;110532;1275;23136;-77
2023/01/11 10:34:58;;;;;;;8.10;2.50;;;;;;;;;;110601;1275;22106;-78
2023/01/11 10:37:48;;;;;;;9.00;2.20;;;;;;;;;;110755;1255;22148;-79
2023/01/11 10:40:38;;;;;;;8.70;2.60;;;;;;;;;;110657;1275;22395;-78
2023/01/11 10:43:24;;;;;;;5.80;1.50;;;;;;;;;;110648;1275;22240;-78
2023/01/11 10:45:58;;;;;;;7.30;2.50;;;;;;;;;;110660;1275;22125;-79
2023/01/11 10:48:38;;;;;;;7.20;1.70;;;;;;;;;;110796;1265;22045;-77
2023/01/11 10:51:11;;;;;;;9.90;2.30;;;;;;;;;;110394;1275;22329;-78
2023/01/11 10:53:42;;;;;;;11.50;2.30;;;;;;;;;;110585;1275;22130;-78
2023/01/11 10:56:23;;;;;;;10.40;2.10;;;;;;;;;;110576;1275;22380;-78
2023/01/11 10:58:49;;;;;;;8.00;1.90;;;;;;;;;;110551;1272;22603;-78
2023/01/11 11:01:35;;;;;;;6.10;1.70;;;;;;;;;;110548;1266;23230;-77
2023/01/11 11:04:13;;;;;;;7.00;1.50;;;;;;;;;;110652;1275;22354;-76
2023/01/11 11:06:46;;;;;;;7.90;1.80;;;;;;;;;;110633;1275;22775;-76
2023/01/11 11:09:31;;;;;;;10.70;2.10;;;;;;;;;;110540;1269;22328;-77
2023/01/11 11:12:01;;;;;;;7.10;1.50;;;;;;;;;;110651;1275;22106;-76
2023/01/11 11:14:41;;;;;;;9.30;1.70;;;;;;;;;;110613;1275;22799;-76
2023/01/11 11:17:23;;;;;;;4.40;1.20;;;;;;;;;;110574;1275;22271;-75
2023/01/11 11:19:51;;;;;;;5.90;1.70;;;;;;;;;;110577;1259;22596;-77
2023/01/11 11:22:19;;;;;;;6.50;1.60;;;;;;;;;;110399;1275;22374;-77
2023/01/11 11:24:49;;;;;;;6.70;1.80;;;;;;;;;;110598;1275;22153;-77
2023/01/11 11:27:24;;;;;;;8.20;1.70;;;;;;;;;;110634;1275;22341;-76
2023/01/11 11:29:52;;;;;;;6.00;1.50;;;;;;;;;;110637;1256;22109;-77
2023/01/11 11:32:24;;;;;;;6.80;1.50;;;;;;;;;;110567;1275;22216;-76
2023/01/11 11:34:51;;;;;;;6.40;1.60;;;;;;;;;;110538;1275;22107;-76
2023/01/11 11:37:31;;;;;;;6.80;1.80;;;;;;;;;;110643;1275;22826;-78
2023/01/11 11:39:58;;;;;;;6.50;1.60;;;;;;;;;;110884;1259;22380;-78
2023/01/11 11:42:25;;;;;;;7.90;1.70;;;;;;;;;;110511;1275;22234;-77
2023/01/11 11:45:20;;;;;;;7.10;2.20;;;;;;;;;;110397;1275;22124;-78
2023/01/11 11:47:59;;;;;;;9.20;2.40;;;;;;;;;;110503;1275;22408;-77
2023/01/11 11:50:31;;;;;;;10.40;3.10;;;;;;;;;;110815;1257;22223;-81
2023/01/11 11:53:02;;;;;;;6.20;1.70;;;;;;;;;;110392;1275;22187;-76
2023/01/11 11:55:33;;;;;;;7.50;2.10;;;;;;;;;;110430;1275;22131;-76
2023/01/11 11:58:05;;;;;;;8.20;2.10;;;;;;;;;;110406;1275;22141;-77
2023/01/11 12:00:34;;;;;;;5.80;1.60;;;;;;;;;;110587;1258;22172;-78
2023/01/11 12:03:07;;;;;;;7.70;2.00;;;;;;;;;;110498;1275;22204;-78
2023/01/11 12:05:33;;;;;;;7.00;2.10;;;;;;;;;;110391;1275;22898;-77
2023/01/11 12:08:02;;;;;;;7.40;1.80;;;;;;;;;;110474;1276;22298;-77
2023/01/11 12:10:50;;;;;;;8.20;2.70;;;;;;;;;;110468;1254;23188;-78
2023/01/11 12:13:32;;;;;;;9.60;3.20;;;;;;;;;;110581;1269;22190;-77
2023/01/11 12:16:06;;;;;;;9.60;3.10;;;;;;;;;;110477;1276;22121;-75
2023/01/11 12:18:40;;;;;;;14.50;5.20;;;;;;;;;;110495;1276;22134;-77
2023/01/11 12:21:38;;;;;;;13.00;3.60;;;;;;;;;;110652;1259;22179;-76
2023/01/11 12:24:18;;;;;;;10.10;2.80;;;;;;;;;;110557;1276;22222;-79
2023/01/11 12:27:08;;;;;;;9.00;2.40;;;;;;;;;;110469;1276;22157;-76
2023/01/11 12:29:49;;;;;;;7.50;2.10;;;;;;;;;;110545;1276;21991;-76
2023/01/11 12:32:26;;;;;;;9.50;2.50;;;;;;;;;;110614;1254;22343;-79
2023/01/11 12:35:04;;;;;;;9.90;2.80;;;;;;;;;;110634;1276;22138;-78
2023/01/11 12:38:13;;;;;;;11.30;3.30;;;;;;;;;;110585;1257;22104;-77
2023/01/11 12:41:17;;;;;;;13.50;4.00;;;;;;;;;;110461;1254;23013;-78
2023/01/11 12:44:18;;;;;;;11.30;3.30;;;;;;;;;;110446;1276;22146;-79
2023/01/11 12:46:57;;;;;;;10.20;2.90;;;;;;;;;;110463;1276;22858;-77
2023/01/11 12:50:01;;;;;;;11.60;3.70;;;;;;;;;;110366;1275;22137;-77
2023/01/11 12:52:44;;;;;;;11.50;3.30;;;;;;;;;;110839;1253;22111;-78
2023/01/11 12:55:33;;;;;;;9.40;3.50;;;;;;;;;;110567;1276;22058;-79
2023/01/11 12:58:20;;;;;;;10.00;3.30;;;;;;;;;;110578;1276;22097;-78
2023/01/11 13:01:11;;;;;;;8.90;2.70;;;;;;;;;;110336;1276;22206;-78
2023/01/11 13:04:04;;;;;;;9.70;3.20;;;;;;;;;;110418;1267;22165;-78
2023/01/11 13:14:09;;;;;;;13.10;4.40;;;;;;;;;;103904;1292;545565;-82
2023/01/11 13:17:15;;;;;;;14.50;4.40;;;;;;;;;;106413;1280;23953;-79
2023/01/11 13:19:55;;;;;;;;;;;;;;;;;;;;;
2023/01/11 13:22:44;;;;;;;14.70;4.30;;;;;;;;;;106249;1267;25268;-79
2023/01/11 13:25:19;;;;;;;11.30;3.90;;;;;;;;;;106203;1280;24205;-78
2023/01/11 13:27:48;;;;;;;10.20;3.20;;;;;;;;;;105063;1285;1738532;-80
2023/01/11 13:30:23;;;;;;;14.00;4.80;;;;;;;;;;106221;1279;22652;-81
2023/01/11 13:33:09;;;;;;;15.00;4.20;;;;;;;;;;106315;1270;22558;-86
2023/01/11 13:35:39;;;;;;;9.40;3.30;;;;;;;;;;106256;1277;22554;-79
2023/01/11 13:38:20;;;;;;;11.90;3.80;;;;;;;;;;106376;1276;22672;-77
2023/01/11 13:41:01;;;;;;;10.20;3.20;;;;;;;;;;106328;1284;22532;-79
2023/01/11 13:43:58;;;;;;;11.20;3.50;;;;;;;;;;106275;1269;24308;-81
2023/01/11 13:47:04;;;;;;;10.10;3.20;;;;;;;;;;106489;1271;24259;-79
2023/01/11 13:50:19;;;;;;;9.70;3.50;;;;;;;;;;106089;1280;25456;-79
2023/01/11 13:53:02;;;;;;;11.90;3.80;;;;;;;;;;106158;1282;22752;-79
2023/01/11 13:56:19;;;;;;;12.90;4.10;;;;;;;;;;106185;1273;22536;-78
2023/01/11 13:59:21;;;;;;;10.60;3.30;;;;;;;;;;106317;1285;24234;-79
2023/01/11 14:01:52;;;;;;;11.10;3.50;;;;;;;;;;106176;1263;25584;-83
2023/01/11 14:04:40;;;;;;;11.30;3.70;;;;;;;;;;106363;1276;24213;-81
2023/01/11 14:07:40;;;;;;;13.30;3.90;;;;;;;;;;106371;1282;25347;-78
2023/01/11 14:10:43;;;;;;;13.10;4.60;;;;;;;;;;106307;1285;22558;-79
2023/01/11 14:16:46;;;;;;;10.70;4.30;;;;;;;;;;106445;1266;25328;-79
2023/01/11 14:19:33;;;;;;;11.70;4.40;;;;;;;;;;106611;1280;26512;-77
2023/01/11 14:22:18;;;;;;;12.80;4.20;;;;;;;;;;106600;1281;25348;-79
2023/01/11 14:25:06;;;;;;;13.90;5.20;;;;;;;;;;106531;1276;25452;-79
2023/01/11 14:27:56;;;;;;;15.00;6.40;;;;;;;;;;106530;1273;22543;-80
2023/01/11 14:30:33;;;;;;;13.40;5.00;;;;;;;;;;106553;1276;22540;-79
2023/01/11 14:33:30;;;;;;;23.30;8.00;;;;;;;;;;106636;1279;25239;-79
2023/01/11 14:35:59;;;;;;;23.40;7.90;;;;;;;;;;106382;1266;25561;-78
2023/01/11 14:45:28;;;;;;;17.80;6.60;;;;;;;;;;104552;1285;544728;-77
2023/01/11 14:48:09;;;;;;;27.40;11.10;;;;;;;;;;106319;1285;22622;-78
2023/01/11 14:50:49;;;;;;;21.70;9.50;;;;;;;;;;106224;1279;22647;-78
2023/01/11 14:53:27;;;;;;;18.80;6.20;;;;;;;;;;106408;1285;24326;-79
2023/01/11 14:55:54;;;;;;;14.90;6.10;;;;;;;;;;105932;1279;22720;-79
2023/01/11 14:58:25;;;;;;;13.10;5.80;;;;;;;;;;101990;1287;5354402;-81
2023/01/11 15:08:19;;;;;;;11.60;4.90;;;;;;;;;;103565;1295;546090;-79
2023/01/11 15:11:04;;;;;;;11.60;4.60;;;;;;;;;;106010;1287;22587;-78
2023/01/11 15:14:03;;;;;;;16.60;5.80;;;;;;;;;;105974;1286;22540;-78
2023/01/11 15:19:35;;;;;;;12.40;5.70;;;;;;;;;;105893;1274;22549;-78
2023/01/11 15:22:25;;;;;;;12.40;5.50;;;;;;;;;;104609;1283;1890567;-77
2023/01/11 15:25:03;;;;;;;14.70;5.90;;;;;;;;;;106325;1280;22548;-79
2023/01/11 15:27:57;;;;;;;21.00;7.60;;;;;;;;;;106171;1273;22567;-79
2023/01/11 15:30:53;;;;;;;32.10;11.50;;;;;;;;;;106080;1272;24270;-78
2023/01/11 15:34:16;;;;;;;24.30;9.40;;;;;;;;;;106200;1283;22492;-81
2023/01/11 15:36:58;;;;;;;23.20;8.30;;;;;;;;;;106231;1279;23891;-79
2023/01/11 15:40:04;;;;;;;23.40;8.50;;;;;;;;;;106288;1279;22996;-78
2023/01/11 15:42:51;;;;;;;21.50;8.80;;;;;;;;;;106136;1286;24300;-79
2023/01/11 15:45:34;;;;;;;15.00;5.40;;;;;;;;;;106347;1285;22595;-80
2023/01/11 15:48:29;;;;;;;12.30;5.00;;;;;;;;;;106960;1251;22540;-82
2023/01/11 15:51:27;;;;;;;10.60;4.50;;;;;;;;;;107031;1254;22556;-85
2023/01/11 15:54:24;;;;;;;12.00;5.00;;;;;;;;;;106907;1274;22537;-85
2023/01/11 15:57:34;;;;;;;12.80;5.70;;;;;;;;;;107096;1263;22526;-77
2023/01/11 16:00:20;;;;;;;10.60;4.80;;;;;;;;;;107095;1270;22804;-82
2023/01/11 16:03:15;;;;;;;10.00;4.70;;;;;;;;;;106996;1267;24046;-79
2023/01/11 16:05:57;;;;;;;13.80;5.50;;;;;;;;;;106861;1274;24598;-78
2023/01/11 16:08:33;;;;;;;11.70;4.60;;;;;;;;;;106868;1251;25079;-80
2023/01/11 16:11:14;;;;;;;12.90;4.90;;;;;;;;;;107052;1267;22531;-84
2023/01/11 16:13:58;;;;;;;11.80;4.90;;;;;;;;;;107049;1274;25268;-79
2023/01/11 16:16:39;;;;;;;12.50;4.30;;;;;;;;;;107096;1267;22530;-80
2023/01/11 16:19:20;;;;;;;13.10;5.30;;;;;;;;;;107075;1257;24197;-79
2023/01/11 16:22:00;;;;;;;14.50;6.20;;;;;;;;;;106974;1268;22559;-78
2023/01/11 16:24:37;;;;;;;11.70;4.30;;;;;;;;;;106868;1273;22541;-78
2023/01/11 16:27:23;;;;;;;9.70;3.80;;;;;;;;;;106959;1269;25353;-81
2023/01/11 16:30:11;;;;;;;12.60;4.70;;;;;;;;;;107152;1264;24398;-79
2023/01/11 16:32:51;;;;;;;13.00;4.80;;;;;;;;;;106928;1274;25303;-80
2023/01/11 16:35:22;;;;;;;10.20;3.70;;;;;;;;;;110658;1266;22357;-78
2023/01/11 16:37:58;;;;;;;14.20;5.30;;;;;;;;;;110635;1269;22453;-78
2023/01/11 16:40:31;;;;;;;12.60;4.40;;;;;;;;;;110529;1253;22232;-80
2023/01/11 16:43:10;;;;;;;9.80;3.80;;;;;;;;;;110566;1269;22229;-80
2023/01/11 16:45:58;;;;;;;11.30;3.80;;;;;;;;;;110458;1275;22501;-79
2023/01/11 16:48:28;;;;;;;11.40;4.20;;;;;;;;;;110408;1270;22428;-80
2023/01/11 16:51:03;;;;;;;9.80;3.90;;;;;;;;;;110477;1257;22428;-81
2023/01/11 16:53:50;;;;;;;10.50;4.90;;;;;;;;;;110619;1266;22876;-80
2023/01/11 16:56:26;;;;;;;8.40;3.80;;;;;;;;;;110430;1274;23260;-77
2023/01/11 16:59:08;;;;;;;12.20;4.20;;;;;;;;;;110391;1270;22623;-79
2023/01/11 17:02:13;;;;;;;14.50;5.00;;;;;;;;;;110472;1254;22344;-79
2023/01/11 17:04:55;;;;;;;19.80;6.00;;;;;;;;;;109990;1281;22318;-77
2023/01/11 17:07:30;;;;;;;17.60;5.40;;;;;;;;;;110092;1273;23326;-79
2023/01/11 17:10:19;;;;;;;16.30;5.20;;;;;;;;;;109975;1262;22179;-78
2023/01/11 17:12:47;;;;;;;12.50;4.50;;;;;;;;;;109983;1282;22354;-78
2023/01/11 17:15:25;;;;;;;28.10;8.50;;;;;;;;;;109952;1268;22193;-80
2023/01/11 17:17:51;;;;;;;19.90;5.70;;;;;;;;;;109990;1282;22190;-81
2023/01/11 17:20:25;;;;;;;21.40;6.50;;;;;;;;;;109983;1259;22226;-79
2023/01/11 17:23:01;;;;;;;24.40;7.40;;;;;;;;;;110032;1281;22611;-78
2023/01/11 17:25:39;;;;;;;24.90;7.80;;;;;;;;;;110019;1281;22442;-78
2023/01/11 17:28:09;;;;;;;20.60;7.60;;;;;;;;;;110092;1281;22128;-77
2023/01/11 17:30:35;;;;;;;15.60;5.40;;;;;;;;;;110045;1265;22182;-77
2023/01/11 17:33:02;;;;;;;13.30;4.70;;;;;;;;;;109985;1266;22972;-77
2023/01/11 17:35:41;;;;;;;11.80;4.30;;;;;;;;;;110019;1282;22241;-77
2023/01/11 17:38:16;;;;;;;12.80;4.60;;;;;;;;;;110173;1275;22148;-78
2023/01/11 17:40:57;;;;;;;12.20;4.60;;;;;;;;;;110586;1257;22135;-78
2023/01/11 17:46:27;;;;;;;11.30;3.70;;;;;;;;;;110441;1275;22842;-80
2023/01/11 17:48:57;;;;;;;10.60;4.00;;;;;;;;;;110399;1275;22126;-78
2023/01/11 17:51:43;;;;;;;10.90;4.10;;;;;;;;;;110593;1255;22900;-79
2023/01/11 17:54:18;;;;;;;11.60;4.20;;;;;;;;;;110416;1276;22752;-78
2023/01/11 17:56:58;;;;;;;11.90;4.50;;;;;;;;;;110469;1276;22132;-79